sensor_id;sensor_type;location;lat;lon;timestamp;P1;durP1;ratioP1;P2;durP2;ratioP2
16977;SDS011;8605;52.548;4.918;2023-06-22T00:01:04;37.35;;;24.33;;
16977;SDS011;8605;52.548;4.918;2023-06-22T00:06:09;37.60;;;24.33;;
16977;SDS011;8605;52.548;4.918;2023-06-22T00:11:12;34.63;;;23.05;;
16977;SDS011;8605;52.548;4.918;2023-06-22T00:16:15;35.13;;;24.38;;
16977;SDS011;8605;52.548;4.918;2023-06-22T00:21:19;34.25;;;22.00;;
16977;SDS011;8605;52.548;4.918;2023-06-22T00:26:24;43.85;;;24.48;;
16977;SDS011;8605;52.548;4.918;2023-06-22T00:31:27;38.35;;;22.95;;
16977;SDS011;8605;52.548;4.918;2023-06-22T00:36:31;42.20;;;24.40;;
16977;SDS011;8605;52.548;4.918;2023-06-22T00:41:34;37.03;;;23.50;;
16977;SDS011;8605;52.548;4.918;2023-06-22T00:46:38;42.63;;;26.43;;
16977;SDS011;8605;52.548;4.918;2023-06-22T00:51:43;36.80;;;24.40;;
16977;SDS011;8605;52.548;4.918;2023-06-22T00:56:47;39.05;;;25.70;;
16977;SDS011;8605;52.548;4.918;2023-06-22T01:01:50;36.77;;;24.67;;
16977;SDS011;8605;52.548;4.918;2023-06-22T01:06:54;35.03;;;22.33;;
16977;SDS011;8605;52.548;4.918;2023-06-22T01:12:01;33.60;;;23.02;;
16977;SDS011;8605;52.548;4.918;2023-06-22T01:17:06;32.25;;;20.05;;
16977;SDS011;8605;52.548;4.918;2023-06-22T01:22:16;31.80;;;20.30;;
16977;SDS011;8605;52.548;4.918;2023-06-22T01:27:25;36.08;;;22.65;;
16977;SDS011;8605;52.548;4.918;2023-06-22T01:32:37;31.20;;;20.73;;
16977;SDS011;8605;52.548;4.918;2023-06-22T01:37:41;31.88;;;19.10;;
16977;SDS011;8605;52.548;4.918;2023-06-22T01:42:45;28.23;;;18.07;;
16977;SDS011;8605;52.548;4.918;2023-06-22T01:47:50;28.45;;;18.98;;
16977;SDS011;8605;52.548;4.918;2023-06-22T01:52:53;37.00;;;22.67;;
16977;SDS011;8605;52.548;4.918;2023-06-22T01:57:56;36.43;;;23.77;;
16977;SDS011;8605;52.548;4.918;2023-06-22T02:03:01;40.37;;;23.27;;
16977;SDS011;8605;52.548;4.918;2023-06-22T02:08:08;29.52;;;19.80;;
16977;SDS011;8605;52.548;4.918;2023-06-22T02:13:12;30.73;;;18.60;;
16977;SDS011;8605;52.548;4.918;2023-06-22T02:18:17;26.27;;;17.23;;
16977;SDS011;8605;52.548;4.918;2023-06-22T02:23:21;28.27;;;19.88;;
16977;SDS011;8605;52.548;4.918;2023-06-22T02:28:26;33.75;;;22.48;;
16977;SDS011;8605;52.548;4.918;2023-06-22T02:33:30;32.63;;;22.73;;
16977;SDS011;8605;52.548;4.918;2023-06-22T02:38:35;36.45;;;25.55;;
16977;SDS011;8605;52.548;4.918;2023-06-22T02:43:38;38.42;;;25.35;;
16977;SDS011;8605;52.548;4.918;2023-06-22T02:48:43;41.13;;;25.50;;
16977;SDS011;8605;52.548;4.918;2023-06-22T02:53:48;40.63;;;26.35;;
16977;SDS011;8605;52.548;4.918;2023-06-22T02:59:00;36.03;;;24.35;;
16977;SDS011;8605;52.548;4.918;2023-06-22T03:04:12;42.85;;;27.50;;
16977;SDS011;8605;52.548;4.918;2023-06-22T03:09:16;39.77;;;25.40;;
16977;SDS011;8605;52.548;4.918;2023-06-22T03:14:20;45.73;;;28.47;;
16977;SDS011;8605;52.548;4.918;2023-06-22T03:19:28;44.97;;;28.17;;
16977;SDS011;8605;52.548;4.918;2023-06-22T03:24:33;47.95;;;29.33;;
16977;SDS011;8605;52.548;4.918;2023-06-22T03:29:36;44.63;;;29.90;;
16977;SDS011;8605;52.548;4.918;2023-06-22T03:34:40;43.28;;;28.20;;
16977;SDS011;8605;52.548;4.918;2023-06-22T03:39:48;46.20;;;29.13;;
16977;SDS011;8605;52.548;4.918;2023-06-22T03:44:52;46.90;;;28.88;;
16977;SDS011;8605;52.548;4.918;2023-06-22T03:49:56;49.97;;;28.55;;
16977;SDS011;8605;52.548;4.918;2023-06-22T03:54:59;44.10;;;28.05;;
16977;SDS011;8605;52.548;4.918;2023-06-22T04:00:02;47.40;;;27.40;;
16977;SDS011;8605;52.548;4.918;2023-06-22T04:05:13;44.97;;;27.98;;
16977;SDS011;8605;52.548;4.918;2023-06-22T04:10:19;43.40;;;26.65;;
16977;SDS011;8605;52.548;4.918;2023-06-22T04:15:22;45.35;;;27.65;;
16977;SDS011;8605;52.548;4.918;2023-06-22T04:20:26;43.40;;;26.45;;
16977;SDS011;8605;52.548;4.918;2023-06-22T04:25:30;44.70;;;26.17;;
16977;SDS011;8605;52.548;4.918;2023-06-22T04:30:33;39.15;;;25.27;;
16977;SDS011;8605;52.548;4.918;2023-06-22T04:35:38;38.87;;;24.97;;
16977;SDS011;8605;52.548;4.918;2023-06-22T04:40:42;40.22;;;25.73;;
16977;SDS011;8605;52.548;4.918;2023-06-22T04:45:45;44.47;;;26.25;;
16977;SDS011;8605;52.548;4.918;2023-06-22T04:50:55;40.78;;;26.00;;
16977;SDS011;8605;52.548;4.918;2023-06-22T04:56:04;37.33;;;24.63;;
16977;SDS011;8605;52.548;4.918;2023-06-22T05:01:07;40.85;;;25.92;;
16977;SDS011;8605;52.548;4.918;2023-06-22T05:06:13;36.72;;;25.55;;
16977;SDS011;8605;52.548;4.918;2023-06-22T05:11:16;36.07;;;22.80;;
16977;SDS011;8605;52.548;4.918;2023-06-22T05:16:20;37.70;;;25.35;;
16977;SDS011;8605;52.548;4.918;2023-06-22T05:21:27;38.60;;;24.83;;
16977;SDS011;8605;52.548;4.918;2023-06-22T05:26:30;37.50;;;23.90;;
16977;SDS011;8605;52.548;4.918;2023-06-22T05:31:34;33.33;;;22.52;;
16977;SDS011;8605;52.548;4.918;2023-06-22T05:36:40;36.80;;;23.98;;
16977;SDS011;8605;52.548;4.918;2023-06-22T05:41:45;38.80;;;24.90;;
16977;SDS011;8605;52.548;4.918;2023-06-22T05:46:49;32.97;;;23.70;;
16977;SDS011;8605;52.548;4.918;2023-06-22T05:51:55;34.25;;;24.35;;
16977;SDS011;8605;52.548;4.918;2023-06-22T05:56:58;41.88;;;25.00;;
16977;SDS011;8605;52.548;4.918;2023-06-22T06:02:01;38.40;;;24.42;;
16977;SDS011;8605;52.548;4.918;2023-06-22T06:07:06;34.05;;;21.17;;
16977;SDS011;8605;52.548;4.918;2023-06-22T06:12:09;30.58;;;20.60;;
16977;SDS011;8605;52.548;4.918;2023-06-22T06:17:14;28.20;;;19.67;;
16977;SDS011;8605;52.548;4.918;2023-06-22T06:22:19;31.02;;;22.08;;
16977;SDS011;8605;52.548;4.918;2023-06-22T06:27:24;28.05;;;20.60;;
16977;SDS011;8605;52.548;4.918;2023-06-22T06:32:30;34.70;;;22.67;;
16977;SDS011;8605;52.548;4.918;2023-06-22T06:37:36;29.48;;;20.20;;
16977;SDS011;8605;52.548;4.918;2023-06-22T06:42:40;29.50;;;19.90;;
16977;SDS011;8605;52.548;4.918;2023-06-22T06:47:46;27.35;;;17.60;;
16977;SDS011;8605;52.548;4.918;2023-06-22T06:52:51;24.13;;;17.90;;
16977;SDS011;8605;52.548;4.918;2023-06-22T06:57:54;24.33;;;17.60;;
16977;SDS011;8605;52.548;4.918;2023-06-22T07:02:57;26.58;;;17.52;;
16977;SDS011;8605;52.548;4.918;2023-06-22T07:08:02;22.75;;;17.83;;
16977;SDS011;8605;52.548;4.918;2023-06-22T07:13:05;25.50;;;18.80;;
16977;SDS011;8605;52.548;4.918;2023-06-22T07:18:08;24.17;;;18.40;;
16977;SDS011;8605;52.548;4.918;2023-06-22T07:23:13;26.90;;;20.33;;
16977;SDS011;8605;52.548;4.918;2023-06-22T07:28:15;27.13;;;19.20;;
16977;SDS011;8605;52.548;4.918;2023-06-22T07:33:19;25.95;;;18.17;;
16977;SDS011;8605;52.548;4.918;2023-06-22T07:38:23;22.80;;;17.40;;
16977;SDS011;8605;52.548;4.918;2023-06-22T07:43:26;24.08;;;18.05;;
16977;SDS011;8605;52.548;4.918;2023-06-22T07:48:31;22.30;;;18.98;;
16977;SDS011;8605;52.548;4.918;2023-06-22T07:53:35;22.58;;;17.92;;
16977;SDS011;8605;52.548;4.918;2023-06-22T07:58:38;21.17;;;15.75;;
16977;SDS011;8605;52.548;4.918;2023-06-22T08:03:41;20.90;;;16.23;;
16977;SDS011;8605;52.548;4.918;2023-06-22T08:08:46;22.97;;;17.07;;
16977;SDS011;8605;52.548;4.918;2023-06-22T08:13:50;26.87;;;20.10;;
16977;SDS011;8605;52.548;4.918;2023-06-22T08:18:53;23.08;;;17.35;;
16977;SDS011;8605;52.548;4.918;2023-06-22T08:23:58;23.17;;;17.23;;
16977;SDS011;8605;52.548;4.918;2023-06-22T08:29:01;21.30;;;16.13;;
16977;SDS011;8605;52.548;4.918;2023-06-22T08:34:04;21.52;;;17.23;;
16977;SDS011;8605;52.548;4.918;2023-06-22T08:39:09;22.57;;;16.37;;
16977;SDS011;8605;52.548;4.918;2023-06-22T08:44:12;19.90;;;15.10;;
16977;SDS011;8605;52.548;4.918;2023-06-22T08:49:15;19.95;;;14.20;;
16977;SDS011;8605;52.548;4.918;2023-06-22T08:54:19;20.60;;;13.50;;
16977;SDS011;8605;52.548;4.918;2023-06-22T08:59:22;17.35;;;13.23;;
16977;SDS011;8605;52.548;4.918;2023-06-22T09:04:25;15.05;;;12.35;;
16977;SDS011;8605;52.548;4.918;2023-06-22T09:09:31;18.05;;;13.32;;
16977;SDS011;8605;52.548;4.918;2023-06-22T09:14:34;21.67;;;14.00;;
16977;SDS011;8605;52.548;4.918;2023-06-22T09:19:36;16.38;;;12.27;;
16977;SDS011;8605;52.548;4.918;2023-06-22T09:24:41;17.10;;;13.18;;
16977;SDS011;8605;52.548;4.918;2023-06-22T09:29:44;18.88;;;13.60;;
16977;SDS011;8605;52.548;4.918;2023-06-22T09:34:47;20.70;;;14.18;;
16977;SDS011;8605;52.548;4.918;2023-06-22T09:39:52;20.85;;;13.70;;
16977;SDS011;8605;52.548;4.918;2023-06-22T09:44:55;17.42;;;12.45;;
16977;SDS011;8605;52.548;4.918;2023-06-22T09:49:57;14.77;;;12.30;;
16977;SDS011;8605;52.548;4.918;2023-06-22T09:55:03;14.75;;;12.27;;
16977;SDS011;8605;52.548;4.918;2023-06-22T10:00:07;18.00;;;12.15;;
16977;SDS011;8605;52.548;4.918;2023-06-22T10:05:13;15.23;;;11.48;;
16977;SDS011;8605;52.548;4.918;2023-06-22T10:10:18;16.42;;;10.27;;
16977;SDS011;8605;52.548;4.918;2023-06-22T10:15:21;15.35;;;10.43;;
16977;SDS011;8605;52.548;4.918;2023-06-22T10:20:24;13.05;;;10.20;;
16977;SDS011;8605;52.548;4.918;2023-06-22T10:25:29;16.20;;;12.52;;
16977;SDS011;8605;52.548;4.918;2023-06-22T10:30:33;16.80;;;10.02;;
16977;SDS011;8605;52.548;4.918;2023-06-22T10:35:36;14.35;;;10.80;;
16977;SDS011;8605;52.548;4.918;2023-06-22T10:40:41;13.20;;;10.20;;
16977;SDS011;8605;52.548;4.918;2023-06-22T10:45:44;15.52;;;11.00;;
16977;SDS011;8605;52.548;4.918;2023-06-22T10:50:47;19.77;;;13.10;;
16977;SDS011;8605;52.548;4.918;2023-06-22T10:55:52;17.60;;;12.40;;
16977;SDS011;8605;52.548;4.918;2023-06-22T11:00:58;14.93;;;12.43;;
16977;SDS011;8605;52.548;4.918;2023-06-22T11:06:01;17.25;;;11.23;;
16977;SDS011;8605;52.548;4.918;2023-06-22T11:11:05;15.10;;;10.93;;
16977;SDS011;8605;52.548;4.918;2023-06-22T11:16:09;13.27;;;9.10;;
16977;SDS011;8605;52.548;4.918;2023-06-22T11:21:12;13.00;;;10.27;;
16977;SDS011;8605;52.548;4.918;2023-06-22T11:26:17;12.68;;;10.45;;
16977;SDS011;8605;52.548;4.918;2023-06-22T11:31:20;13.40;;;10.63;;
16977;SDS011;8605;52.548;4.918;2023-06-22T11:36:27;11.00;;;9.65;;
16977;SDS011;8605;52.548;4.918;2023-06-22T11:41:35;12.87;;;10.30;;
16977;SDS011;8605;52.548;4.918;2023-06-22T11:46:39;14.53;;;11.33;;
16977;SDS011;8605;52.548;4.918;2023-06-22T11:51:42;12.40;;;10.15;;
16977;SDS011;8605;52.548;4.918;2023-06-22T11:56:46;11.10;;;7.75;;
16977;SDS011;8605;52.548;4.918;2023-06-22T12:01:49;12.30;;;9.17;;
16977;SDS011;8605;52.548;4.918;2023-06-22T12:06:53;10.73;;;8.67;;
16977;SDS011;8605;52.548;4.918;2023-06-22T12:12:21;11.73;;;9.90;;
16977;SDS011;8605;52.548;4.918;2023-06-22T12:17:24;13.83;;;9.20;;
16977;SDS011;8605;52.548;4.918;2023-06-22T12:22:27;13.30;;;11.50;;
16977;SDS011;8605;52.548;4.918;2023-06-22T12:27:32;13.52;;;11.35;;
16977;SDS011;8605;52.548;4.918;2023-06-22T12:32:35;20.42;;;11.45;;
16977;SDS011;8605;52.548;4.918;2023-06-22T12:37:38;15.17;;;9.60;;
16977;SDS011;8605;52.548;4.918;2023-06-22T12:42:44;12.77;;;9.65;;
16977;SDS011;8605;52.548;4.918;2023-06-22T12:47:47;11.67;;;8.73;;
16977;SDS011;8605;52.548;4.918;2023-06-22T12:52:51;9.10;;;7.45;;
16977;SDS011;8605;52.548;4.918;2023-06-22T12:57:56;11.18;;;7.28;;
16977;SDS011;8605;52.548;4.918;2023-06-22T13:02:59;8.30;;;6.43;;
16977;SDS011;8605;52.548;4.918;2023-06-22T13:08:02;7.28;;;5.53;;
16977;SDS011;8605;52.548;4.918;2023-06-22T13:13:07;7.95;;;5.60;;
16977;SDS011;8605;52.548;4.918;2023-06-22T13:18:10;9.23;;;5.45;;
16977;SDS011;8605;52.548;4.918;2023-06-22T13:23:13;8.80;;;5.53;;
16977;SDS011;8605;52.548;4.918;2023-06-22T13:28:20;8.80;;;5.38;;
16977;SDS011;8605;52.548;4.918;2023-06-22T13:33:29;9.77;;;6.38;;
16977;SDS011;8605;52.548;4.918;2023-06-22T13:38:32;8.80;;;5.53;;
16977;SDS011;8605;52.548;4.918;2023-06-22T13:43:36;9.68;;;6.68;;
16977;SDS011;8605;52.548;4.918;2023-06-22T13:48:39;8.45;;;5.82;;
16977;SDS011;8605;52.548;4.918;2023-06-22T13:53:42;7.22;;;6.13;;
16977;SDS011;8605;52.548;4.918;2023-06-22T13:58:47;9.15;;;5.50;;
16977;SDS011;8605;52.548;4.918;2023-06-22T14:03:52;8.32;;;5.57;;
16977;SDS011;8605;52.548;4.918;2023-06-22T14:08:57;8.20;;;5.88;;
16977;SDS011;8605;52.548;4.918;2023-06-22T14:14:02;5.88;;;4.57;;
16977;SDS011;8605;52.548;4.918;2023-06-22T14:19:05;7.18;;;5.38;;
16977;SDS011;8605;52.548;4.918;2023-06-22T14:24:09;8.02;;;5.28;;
16977;SDS011;8605;52.548;4.918;2023-06-22T14:29:13;9.47;;;5.77;;
16977;SDS011;8605;52.548;4.918;2023-06-22T14:34:16;7.17;;;5.10;;
16977;SDS011;8605;52.548;4.918;2023-06-22T14:39:19;8.63;;;5.80;;
16977;SDS011;8605;52.548;4.918;2023-06-22T14:44:27;6.55;;;4.63;;
16977;SDS011;8605;52.548;4.918;2023-06-22T14:49:31;7.90;;;4.73;;
16977;SDS011;8605;52.548;4.918;2023-06-22T14:54:34;6.88;;;4.05;;
16977;SDS011;8605;52.548;4.918;2023-06-22T14:59:39;6.50;;;4.65;;
16977;SDS011;8605;52.548;4.918;2023-06-22T15:04:44;7.75;;;4.38;;
16977;SDS011;8605;52.548;4.918;2023-06-22T15:09:48;8.85;;;5.13;;
16977;SDS011;8605;52.548;4.918;2023-06-22T15:14:52;5.40;;;3.90;;
16977;SDS011;8605;52.548;4.918;2023-06-22T15:19:57;5.57;;;3.83;;
16977;SDS011;8605;52.548;4.918;2023-06-22T15:25:00;8.18;;;4.20;;
16977;SDS011;8605;52.548;4.918;2023-06-22T15:30:09;5.85;;;3.28;;
16977;SDS011;8605;52.548;4.918;2023-06-22T15:35:12;6.57;;;4.03;;
16977;SDS011;8605;52.548;4.918;2023-06-22T15:40:18;5.15;;;2.97;;
16977;SDS011;8605;52.548;4.918;2023-06-22T15:45:22;6.00;;;3.70;;
16977;SDS011;8605;52.548;4.918;2023-06-22T15:50:28;6.72;;;3.65;;
16977;SDS011;8605;52.548;4.918;2023-06-22T15:55:32;6.38;;;3.08;;
16977;SDS011;8605;52.548;4.918;2023-06-22T16:00:38;4.53;;;2.63;;
16977;SDS011;8605;52.548;4.918;2023-06-22T16:05:42;4.47;;;2.57;;
16977;SDS011;8605;52.548;4.918;2023-06-22T16:10:45;5.45;;;2.85;;
16977;SDS011;8605;52.548;4.918;2023-06-22T16:15:50;3.93;;;2.57;;
16977;SDS011;8605;52.548;4.918;2023-06-22T16:20:53;3.55;;;2.28;;
16977;SDS011;8605;52.548;4.918;2023-06-22T16:25:57;4.18;;;2.33;;
16977;SDS011;8605;52.548;4.918;2023-06-22T16:31:01;2.93;;;1.80;;
16977;SDS011;8605;52.548;4.918;2023-06-22T16:36:04;5.30;;;2.13;;
16977;SDS011;8605;52.548;4.918;2023-06-22T16:41:09;2.83;;;2.10;;
16977;SDS011;8605;52.548;4.918;2023-06-22T16:46:14;6.90;;;1.95;;
16977;SDS011;8605;52.548;4.918;2023-06-22T16:51:17;3.65;;;1.58;;
16977;SDS011;8605;52.548;4.918;2023-06-22T16:56:23;4.60;;;1.20;;
16977;SDS011;8605;52.548;4.918;2023-06-22T17:01:28;2.05;;;1.42;;
16977;SDS011;8605;52.548;4.918;2023-06-22T17:06:34;1.97;;;1.60;;
16977;SDS011;8605;52.548;4.918;2023-06-22T17:11:37;3.10;;;1.50;;
16977;SDS011;8605;52.548;4.918;2023-06-22T17:16:41;1.98;;;1.45;;
16977;SDS011;8605;52.548;4.918;2023-06-22T17:21:45;3.17;;;1.75;;
16977;SDS011;8605;52.548;4.918;2023-06-22T17:26:49;2.40;;;1.65;;
16977;SDS011;8605;52.548;4.918;2023-06-22T17:31:56;2.10;;;1.80;;
16977;SDS011;8605;52.548;4.918;2023-06-22T17:37:00;2.60;;;1.90;;
16977;SDS011;8605;52.548;4.918;2023-06-22T17:42:04;4.40;;;1.88;;
16977;SDS011;8605;52.548;4.918;2023-06-22T17:47:10;3.85;;;1.83;;
16977;SDS011;8605;52.548;4.918;2023-06-22T17:52:16;4.38;;;1.88;;
16977;SDS011;8605;52.548;4.918;2023-06-22T17:57:19;2.90;;;1.77;;
16977;SDS011;8605;52.548;4.918;2023-06-22T18:02:24;3.25;;;2.17;;
16977;SDS011;8605;52.548;4.918;2023-06-22T18:07:27;2.05;;;1.83;;
16977;SDS011;8605;52.548;4.918;2023-06-22T18:12:31;3.17;;;1.93;;
16977;SDS011;8605;52.548;4.918;2023-06-22T18:17:36;3.53;;;2.03;;
16977;SDS011;8605;52.548;4.918;2023-06-22T18:22:39;3.90;;;2.35;;
16977;SDS011;8605;52.548;4.918;2023-06-22T18:27:43;3.25;;;2.38;;
16977;SDS011;8605;52.548;4.918;2023-06-22T18:32:47;3.05;;;2.30;;
16977;SDS011;8605;52.548;4.918;2023-06-22T18:37:51;4.63;;;2.40;;
16977;SDS011;8605;52.548;4.918;2023-06-22T18:42:58;3.33;;;2.15;;
16977;SDS011;8605;52.548;4.918;2023-06-22T18:48:03;6.75;;;2.85;;
16977;SDS011;8605;52.548;4.918;2023-06-22T18:53:14;5.10;;;2.80;;
16977;SDS011;8605;52.548;4.918;2023-06-22T18:58:19;4.93;;;2.70;;
16977;SDS011;8605;52.548;4.918;2023-06-22T19:03:29;4.00;;;2.60;;
16977;SDS011;8605;52.548;4.918;2023-06-22T19:14:17;4.93;;;2.85;;
16977;SDS011;8605;52.548;4.918;2023-06-22T19:19:22;6.50;;;2.53;;
16977;SDS011;8605;52.548;4.918;2023-06-22T19:24:29;3.70;;;2.57;;
16977;SDS011;8605;52.548;4.918;2023-06-22T19:29:33;4.90;;;2.63;;
16977;SDS011;8605;52.548;4.918;2023-06-22T19:34:38;6.30;;;2.65;;
16977;SDS011;8605;52.548;4.918;2023-06-22T19:39:47;2.80;;;1.95;;
16977;SDS011;8605;52.548;4.918;2023-06-22T19:44:57;5.47;;;2.43;;
16977;SDS011;8605;52.548;4.918;2023-06-22T19:50:02;3.88;;;2.47;;
16977;SDS011;8605;52.548;4.918;2023-06-22T19:55:07;6.03;;;3.07;;
16977;SDS011;8605;52.548;4.918;2023-06-22T20:00:19;4.95;;;3.10;;
16977;SDS011;8605;52.548;4.918;2023-06-22T20:05:23;2.78;;;2.47;;
16977;SDS011;8605;52.548;4.918;2023-06-22T20:10:27;3.70;;;2.40;;
16977;SDS011;8605;52.548;4.918;2023-06-22T20:15:32;4.70;;;2.83;;
16977;SDS011;8605;52.548;4.918;2023-06-22T20:20:37;4.13;;;2.67;;
16977;SDS011;8605;52.548;4.918;2023-06-22T20:25:41;6.40;;;3.73;;
16977;SDS011;8605;52.548;4.918;2023-06-22T20:31:00;6.28;;;3.95;;
16977;SDS011;8605;52.548;4.918;2023-06-22T20:36:06;5.53;;;3.67;;
16977;SDS011;8605;52.548;4.918;2023-06-22T20:41:11;7.07;;;3.95;;
16977;SDS011;8605;52.548;4.918;2023-06-22T20:46:14;6.90;;;4.38;;
16977;SDS011;8605;52.548;4.918;2023-06-22T20:51:19;6.93;;;4.93;;
16977;SDS011;8605;52.548;4.918;2023-06-22T20:56:22;8.23;;;5.68;;
16977;SDS011;8605;52.548;4.918;2023-06-22T21:01:25;9.80;;;5.73;;
16977;SDS011;8605;52.548;4.918;2023-06-22T21:06:36;9.75;;;5.55;;
16977;SDS011;8605;52.548;4.918;2023-06-22T21:11:39;6.60;;;4.90;;
16977;SDS011;8605;52.548;4.918;2023-06-22T21:16:43;7.25;;;5.07;;
16977;SDS011;8605;52.548;4.918;2023-06-22T21:21:48;8.77;;;5.15;;
16977;SDS011;8605;52.548;4.918;2023-06-22T21:26:51;7.43;;;4.90;;
16977;SDS011;8605;52.548;4.918;2023-06-22T21:31:54;8.95;;;4.85;;
16977;SDS011;8605;52.548;4.918;2023-06-22T21:36:58;8.50;;;5.83;;
16977;SDS011;8605;52.548;4.918;2023-06-22T21:42:01;8.20;;;5.90;;
16977;SDS011;8605;52.548;4.918;2023-06-22T21:47:05;9.40;;;6.05;;
16977;SDS011;8605;52.548;4.918;2023-06-22T21:52:10;9.33;;;6.30;;
16977;SDS011;8605;52.548;4.918;2023-06-22T21:57:13;8.90;;;6.53;;
16977;SDS011;8605;52.548;4.918;2023-06-22T22:02:16;9.60;;;6.65;;
16977;SDS011;8605;52.548;4.918;2023-06-22T22:07:21;7.93;;;6.65;;
16977;SDS011;8605;52.548;4.918;2023-06-22T22:12:26;11.50;;;6.45;;
16977;SDS011;8605;52.548;4.918;2023-06-22T22:17:29;10.77;;;7.10;;
16977;SDS011;8605;52.548;4.918;2023-06-22T22:22:34;9.25;;;6.03;;
16977;SDS011;8605;52.548;4.918;2023-06-22T22:27:37;7.00;;;6.17;;
16977;SDS011;8605;52.548;4.918;2023-06-22T22:32:40;6.97;;;5.38;;
16977;SDS011;8605;52.548;4.918;2023-06-22T22:37:44;10.88;;;6.70;;
16977;SDS011;8605;52.548;4.918;2023-06-22T22:42:47;7.30;;;5.23;;
16977;SDS011;8605;52.548;4.918;2023-06-22T22:47:50;7.30;;;5.40;;
16977;SDS011;8605;52.548;4.918;2023-06-22T22:52:55;9.70;;;5.70;;
16977;SDS011;8605;52.548;4.918;2023-06-22T22:57:58;9.48;;;6.45;;
16977;SDS011;8605;52.548;4.918;2023-06-22T23:03:01;11.48;;;7.80;;
16977;SDS011;8605;52.548;4.918;2023-06-22T23:08:05;9.07;;;6.55;;
16977;SDS011;8605;52.548;4.918;2023-06-22T23:13:08;10.97;;;8.27;;
16977;SDS011;8605;52.548;4.918;2023-06-22T23:18:11;13.05;;;8.55;;
16977;SDS011;8605;52.548;4.918;2023-06-22T23:23:16;13.15;;;9.20;;
16977;SDS011;8605;52.548;4.918;2023-06-22T23:28:19;16.20;;;11.43;;
16977;SDS011;8605;52.548;4.918;2023-06-22T23:33:37;13.73;;;10.83;;
16977;SDS011;8605;52.548;4.918;2023-06-22T23:38:42;16.30;;;12.03;;
16977;SDS011;8605;52.548;4.918;2023-06-22T23:43:46;16.13;;;12.47;;
16977;SDS011;8605;52.548;4.918;2023-06-22T23:48:49;19.77;;;14.15;;
16977;SDS011;8605;52.548;4.918;2023-06-22T23:53:54;21.38;;;14.90;;
16977;SDS011;8605;52.548;4.918;2023-06-22T23:58:57;21.43;;;15.13;;
